Terminal Aerodrome Forecast
Issued by NWS

Home | Current Version | Previous Version | Text Only | Print | Product List | Glossary On
Versions: 1 2 3 4 5 6 7 8 9 10 11 12 13 14
853
FTUS42 TJSJ 280241 AAA
TAFNCM
TAF AMD
TNCM 280241Z 2803/2824 11008KT P6SM VCSH SCT018 BKN080
     FM281300 12012KT P6SM VCSH SCT018 BKN070
     FM282300 11009KT P6SM SCT022 BKN080=

USA.gov is the U.S. government's official web portal to all federal, state and local government web resources and services.